Terminal Aerodrome Forecast
Issued by NWS

Home | Current Version | Previous Version | Text Only | Print | Product List | Glossary On
Versions: 1 2 3 4 5 6 7 8 9 10 11 12 13 14 15 16 17 18 19 20
505
FTUS44 KEWX 261741
TAFSSF
TAF
KSSF 261741Z 2618/2718 16012G22KT P6SM FEW040 SCT150
     FM270000 15012KT P6SM SCT050
     FM270600 16005KT P6SM OVC015
     FM271000 18005KT 4SM BR OVC007
     FM271500 19005KT P6SM BKN025=

USA.gov is the U.S. government's official web portal to all federal, state and local government web resources and services.